Terminal Aerodrome Forecast
Issued by NWS

Home | Current Version | Previous Version | Text Only | Print | Product List | Glossary On
Versions: 1 2 3 4 5 6 7 8 9 10 11 12 13
907
FTUS42 KMLB 300539
TAFTIX
TAF
KTIX 300539Z 3006/0106 19005KT P6SM FEW120 SCT250
     FM301400 23005KT P6SM SCT025 SCT250
     FM301700 09008KT P6SM VCTS SCT040CB BKN250
     FM010000 VRB03KT P6SM FEW040 SCT250
      AMD NOT SKED TIL 301100=

USA.gov is the U.S. government's official web portal to all federal, state and local government web resources and services.